Time;durP1;ratioP1;P1;durP2;ratioP2;P2;SDS_P1;SDS_P2;PMS_P1;PMS_P2;Temp;Humidity;BMP_temperature;BMP_pressure;BME280_temperature;BME280_humidity;BME280_pressure;Samples;Min_cycle;Max_cycle;Signal;HPM_P1;HPM_P2
2021/09/13 00:08:37;;;;;;;13.13;10.78;;;;;;;19.67;89.76;100248.98;2881943;77;70133;-74
2021/09/13 00:12:41;;;;;;;16.20;10.85;;;;;;;19.59;88.83;100255.31;2906939;82;21061;-73
2021/09/13 00:21:14;;;;;;;14.10;12.07;;;;;;;19.40;89.19;100258.03;2842875;77;21080;-61
2021/09/13 00:25:16;;;;;;;14.60;11.28;;;;;;;19.38;88.56;100250.64;2874473;82;20996;-60
2021/09/13 00:29:46;;;;;;;15.30;11.88;;;;;;;19.29;88.48;100247.19;2874212;83;21078;-62
2021/09/13 00:33:47;;;;;;;20.17;13.08;;;;;;;19.21;88.48;100254.84;2873975;79;20968;-61
2021/09/13 00:37:49;;;;;;;13.60;11.12;;;;;;;19.14;88.10;100257.95;2874812;79;21040;-60
2021/09/13 00:41:54;;;;;;;13.90;11.33;;;;;;;19.12;87.91;100257.30;2874698;83;21051;-61
2021/09/13 00:46:34;;;;;;;9.17;6.53;;;;;;;19.04;87.31;100258.70;2874972;81;21000;-62
2021/09/13 00:50:36;;;;;;;9.75;6.65;;;;;;;18.89;87.75;100257.30;2874868;81;21000;-60
2021/09/13 00:54:47;;;;;;;15.50;4.33;;;;;;;18.75;88.41;100259.75;2874623;79;20953;-62
2021/09/13 00:58:52;;;;;;;9.48;7.47;;;;;;;18.68;88.08;100261.50;2875084;83;21028;-61
2021/09/13 01:02:55;;;;;;;7.15;6.37;;;;;;;18.62;87.99;100260.36;2874884;83;20948;-63
2021/09/13 01:06:59;;;;;;;9.00;7.70;;;;;;;18.57;87.93;100253.33;2872468;79;66825;-74
2021/09/13 02:28:24;;;;;;;17.48;15.03;;;;;;;17.85;96.75;100269.49;2880903;79;65836;-74
2021/09/13 02:32:27;;;;;;;16.75;14.28;;;;;;;17.70;95.75;100273.42;2881277;80;21057;-74
2021/09/13 03:14:49;;;;;;;20.30;14.23;;;;;;;17.56;93.38;100274.98;2879309;80;21027;-62
2021/09/13 03:18:51;;;;;;;12.73;11.18;;;;;;;17.53;95.13;100278.52;2878885;82;21006;-61
2021/09/13 03:22:54;;;;;;;14.87;11.93;;;;;;;17.61;95.80;100271.78;2880040;81;21014;-62
2021/09/13 03:26:55;;;;;;;13.90;12.33;;;;;;;17.55;96.31;100276.48;2878730;80;21117;-62
2021/09/13 03:30:57;;;;;;;12.68;11.05;;;;;;;17.49;96.90;100280.72;2879527;80;21061;-63
2021/09/13 03:35:00;;;;;;;11.73;10.50;;;;;;;17.50;97.67;100286.92;2879157;81;21816;-62
2021/09/13 03:39:02;;;;;;;15.13;11.88;;;;;;;17.51;98.43;100285.42;2879519;81;21014;-61
2021/09/13 03:43:42;;;;;;;14.68;12.60;;;;;;;17.47;98.37;100284.06;2878970;82;21006;-61
2021/09/13 03:47:44;;;;;;;14.30;12.23;;;;;;;17.40;98.78;100288.45;2885678;78;21106;-62
2021/09/13 03:52:41;;;;;;;14.75;12.55;;;;;;;17.39;99.10;100290.81;2886759;81;20994;-62
2021/09/13 03:56:43;;;;;;;13.88;12.58;;;;;;;17.43;99.21;100288.11;2887654;81;20979;-62
2021/09/13 04:01:40;;;;;;;13.88;11.83;;;;;;;17.38;99.62;100290.48;2886646;81;21337;-62
2021/09/13 04:05:48;;;;;;;15.20;11.30;;;;;;;17.35;99.86;100289.48;2887716;81;20971;-62
2021/09/13 04:14:16;;;;;;;15.88;13.90;;;;;;;17.40;99.83;100293.84;2887553;81;21005;-62
2021/09/13 04:18:18;;;;;;;15.05;11.33;;;;;;;17.50;100.00;100290.96;2886590;81;20970;-64
2021/09/13 04:22:51;;;;;;;16.48;12.98;;;;;;;17.65;100.00;100291.09;2835098;82;21288;-62
2021/09/13 04:26:54;;;;;;;16.60;13.30;;;;;;;17.76;100.00;100294.77;2886818;81;21019;-62
2021/09/13 04:31:36;;;;;;;15.58;12.55;;;;;;;17.94;100.00;100290.48;2887662;81;20947;-62
2021/09/13 04:35:38;;;;;;;15.40;13.00;;;;;;;18.10;100.00;100295.50;2895404;81;20932;-62
2021/09/13 04:39:41;;;;;;;16.45;13.55;;;;;;;18.25;99.88;100293.75;2891431;82;20968;-62
2021/09/13 04:43:43;;;;;;;13.43;12.03;;;;;;;18.32;99.25;100297.93;2891281;81;21297;-62
2021/09/13 04:47:53;;;;;;;17.92;13.03;;;;;;;18.40;98.79;100303.26;2891739;81;21023;-62
2021/09/13 04:51:55;;;;;;;15.35;11.40;;;;;;;18.37;98.03;100304.96;2891639;80;20996;-62
2021/09/13 04:56:36;;;;;;;15.63;11.43;;;;;;;18.26;98.39;100305.34;2891310;81;21008;-63
2021/09/13 05:00:38;;;;;;;14.68;12.93;;;;;;;18.23;98.66;100307.05;2783893;84;21022;-62
2021/09/13 05:04:41;;;;;;;13.43;12.03;;;;;;;18.13;98.73;100308.11;2784202;81;21023;-62
2021/09/13 05:09:16;;;;;;;16.42;12.58;;;;;;;18.11;99.23;100306.59;2784344;83;21323;-62
2021/09/13 05:13:18;;;;;;;14.63;11.45;;;;;;;18.11;99.23;100308.80;2785994;83;21042;-63
2021/09/13 05:18:07;;;;;;;17.00;13.53;;;;;;;18.09;99.54;100318.05;2786326;83;20991;-62
2021/09/13 05:22:12;;;;;;;15.93;12.40;;;;;;;18.09;100.00;100324.78;2786402;83;20995;-62
2021/09/13 05:26:15;;;;;;;15.10;12.45;;;;;;;18.23;100.00;100326.75;2786296;83;21014;-62
2021/09/13 05:30:18;;;;;;;16.97;13.30;;;;;;;18.44;100.00;100323.95;2824576;82;20962;-63
2021/09/13 05:34:19;;;;;;;13.70;12.28;;;;;;;18.64;100.00;100327.02;2892356;81;21017;-63
2021/09/13 05:38:21;;;;;;;56.60;15.35;;;;;;;18.87;99.82;100319.48;2892397;81;20983;-62
2021/09/13 05:42:23;;;;;;;21.62;11.88;;;;;;;19.11;99.76;100322.50;2891959;81;21030;-62
2021/09/13 05:46:26;;;;;;;14.03;12.23;;;;;;;19.51;99.87;100325.02;2892305;78;20943;-62
2021/09/13 05:50:28;;;;;;;19.12;12.45;;;;;;;19.90;99.05;100324.95;2892250;78;20989;-61
2021/09/13 05:54:50;;;;;;;11.25;10.05;;;;;;;20.40;97.65;100327.91;2892365;78;20939;-63
2021/09/13 05:58:52;;;;;;;15.08;10.18;;;;;;;20.70;93.98;100325.10;2892495;78;20968;-62
2021/09/13 06:03:13;;;;;;;12.90;9.55;;;;;;;21.13;92.24;100329.72;2892506;78;21042;-61
2021/09/13 06:07:17;;;;;;;13.90;10.43;;;;;;;21.29;89.41;100319.13;2892135;78;21003;-61
2021/09/13 06:11:37;;;;;;;15.90;11.90;;;;;;;21.59;89.12;100330.27;2867322;78;20966;-62
2021/09/13 06:15:42;;;;;;;14.28;12.63;;;;;;;21.81;86.30;100334.63;2892475;78;20986;-62
2021/09/13 06:19:49;;;;;;;17.55;12.10;;;;;;;21.94;85.62;100331.67;2892804;78;20943;-62
2021/09/13 06:23:53;;;;;;;14.07;9.88;;;;;;;21.97;83.89;100329.91;2892486;78;20990;-62
2021/09/13 06:32:06;;;;;;;14.43;10.40;;;;;;;21.23;84.49;100332.09;2785904;79;70118;-72
2021/09/13 06:36:08;;;;;;;13.00;11.22;;;;;;;21.09;85.59;100327.09;2775828;85;21043;-72
2021/09/13 06:40:11;;;;;;;15.23;12.00;;;;;;;21.18;86.67;100334.02;2776072;84;21062;-71
2021/09/13 06:44:15;;;;;;;16.57;11.43;;;;;;;21.51;86.16;100336.66;2775166;85;21068;-72
2021/09/13 06:48:16;;;;;;;11.48;9.83;;;;;;;21.78;84.61;100346.38;2774308;84;21036;-73
2021/09/13 06:52:19;;;;;;;13.95;11.08;;;;;;;21.62;83.80;100350.20;2773520;86;21100;-72
2021/09/13 06:56:20;;;;;;;9.35;8.45;;;;;;;21.40;84.42;100351.06;2774236;85;21052;-73
2021/09/13 07:00:23;;;;;;;12.65;9.43;;;;;;;21.43;85.00;100344.44;2775563;85;21044;-72
2021/09/13 07:04:25;;;;;;;34.45;14.50;;;;;;;21.67;84.01;100349.93;2773763;85;21032;-72
2021/09/13 07:08:27;;;;;;;24.70;9.13;;;;;;;21.85;82.35;100355.89;2773234;84;21067;-73
2021/09/13 07:12:30;;;;;;;14.23;9.85;;;;;;;21.86;82.39;100358.91;2782526;85;20995;-73
2021/09/13 07:16:32;;;;;;;12.73;9.20;;;;;;;21.91;82.34;100357.80;2728302;86;21123;-73
2021/09/13 07:20:34;;;;;;;14.70;8.83;;;;;;;21.93;82.47;100366.55;2774759;85;21068;-73
2021/09/13 07:24:36;;;;;;;16.77;11.30;;;;;;;22.02;82.57;100370.79;2728315;82;21538;-73
2021/09/13 07:28:37;;;;;;;12.05;8.83;;;;;;;22.14;81.95;100367.50;2773347;85;21098;-72
2021/09/13 07:32:40;;;;;;;10.75;7.65;;;;;;;22.18;80.28;100376.38;2772529;85;21093;-72
2021/09/13 07:36:42;;;;;;;11.73;9.95;;;;;;;22.24;80.94;100380.99;2772855;85;21064;-72
2021/09/13 07:40:43;;;;;;;15.45;9.43;;;;;;;22.31;81.36;100385.09;2773602;84;21010;-74
2021/09/13 07:44:45;;;;;;;17.45;10.05;;;;;;;22.40;79.90;100377.13;2763862;83;21117;-73
2021/09/13 07:48:47;;;;;;;13.60;8.10;;;;;;;22.56;80.20;100381.88;2756427;86;20975;-74
2021/09/13 08:31:12;;;;;;;11.22;8.00;;;;;;;23.81;71.04;100377.88;2811994;83;21163;-71
2021/09/13 08:35:14;;;;;;;9.85;6.15;;;;;;;23.73;72.29;100380.80;2808193;83;21095;-72
2021/09/13 08:39:16;;;;;;;15.32;8.28;;;;;;;23.90;71.77;100385.80;2748687;86;21036;-72
2021/09/13 08:43:20;;;;;;;6.60;5.72;;;;;;;23.89;71.63;100390.91;2755795;86;21079;-70
2021/09/13 08:47:29;;;;;;;7.83;5.05;;;;;;;23.91;70.86;100392.89;2763430;85;21054;-72
2021/09/13 08:51:30;;;;;;;14.25;6.62;;;;;;;23.87;69.06;100386.22;2820987;83;21311;-72
2021/09/13 08:55:33;;;;;;;12.58;5.90;;;;;;;23.76;70.27;100396.67;2836334;83;21090;-71
2021/09/13 08:59:37;;;;;;;7.40;5.95;;;;;;;23.74;69.37;100396.05;2820091;84;21041;-72
2021/09/13 09:03:42;;;;;;;9.68;5.97;;;;;;;23.81;68.58;100396.89;2818654;84;21023;-72
2021/09/13 09:07:53;;;;;;;9.33;6.85;;;;;;;23.90;68.23;100398.02;2820091;84;21036;-72
2021/09/13 09:12:09;;;;;;;7.85;6.28;;;;;;;24.03;68.65;100394.47;2792156;84;21106;-72
2021/09/13 09:16:15;;;;;;;6.83;5.62;;;;;;;23.94;68.63;100399.25;2776607;82;21437;-73
2021/09/13 09:20:16;;;;;;;8.93;6.92;;;;;;;23.94;69.32;100403.33;2784343;85;20995;-72
2021/09/13 09:24:18;;;;;;;6.17;5.58;;;;;;;24.01;68.81;100397.38;2853187;80;20968;-73
2021/09/13 09:28:20;;;;;;;7.37;6.10;;;;;;;24.10;69.40;100409.70;2897049;78;66737;-57
2021/09/13 09:32:27;;;;;;;11.80;5.70;;;;;;;24.25;69.05;100399.12;2916934;81;21054;-57
2021/09/13 09:36:32;;;;;;;6.65;5.05;;;;;;;24.36;67.99;100398.44;2916812;81;20995;-58
2021/09/13 09:40:34;;;;;;;5.65;4.75;;;;;;;24.38;68.60;100406.39;2870004;83;20953;-57
2021/09/13 09:44:36;;;;;;;6.87;5.45;;;;;;;24.46;67.48;100401.23;2869495;83;21004;-57
2021/09/13 09:48:38;;;;;;;11.35;5.47;;;;;;;24.47;68.08;100398.83;2812198;84;21050;-58
2021/09/13 09:52:45;;;;;;;7.80;6.00;;;;;;;24.43;66.57;100396.23;2812385;84;20964;-58
2021/09/13 09:56:58;;;;;;;15.08;7.33;;;;;;;24.45;66.97;100394.14;2812505;80;20968;-57
2021/09/13 10:00:59;;;;;;;5.50;4.75;;;;;;;24.60;66.98;100389.27;2811352;84;20980;-59
2021/09/13 10:05:03;;;;;;;7.45;4.25;;;;;;;24.78;66.63;100393.19;2811837;84;21063;-57
2021/09/13 10:09:05;;;;;;;6.67;4.30;;;;;;;24.76;64.65;100392.54;2811931;84;20999;-57
2021/09/13 10:13:07;;;;;;;9.23;4.83;;;;;;;24.68;63.19;100389.00;2811744;81;21043;-57
2021/09/13 10:17:09;;;;;;;5.87;4.53;;;;;;;24.79;63.78;100400.29;2812055;84;20991;-59
2021/09/13 10:21:12;;;;;;;7.22;4.95;;;;;;;24.90;65.35;100396.86;2811307;81;21090;-57
2021/09/13 10:25:36;;;;;;;11.78;5.03;;;;;;;24.82;63.18;100402.57;2811851;81;20995;-58
2021/09/13 10:29:39;;;;;;;8.95;3.47;;;;;;;24.74;63.68;100394.10;2812379;84;20956;-59
2021/09/13 10:34:03;;;;;;;4.53;3.60;;;;;;;24.57;62.40;100397.86;2810886;81;21028;-63
2021/09/13 10:38:44;;;;;;;6.55;4.80;;;;;;;24.62;64.00;100394.47;2808583;81;21015;-56
2021/09/13 10:42:50;;;;;;;8.90;3.72;;;;;;;24.66;63.05;100392.98;2837496;82;20994;-64
2021/09/13 10:47:06;;;;;;;4.72;3.37;;;;;;;24.55;62.36;100395.85;2906591;81;20999;-59
2021/09/13 10:51:10;;;;;;;3.47;3.08;;;;;;;24.73;63.51;100383.42;2906335;82;21025;-59
2021/09/13 10:55:17;;;;;;;5.92;3.75;;;;;;;25.04;62.19;100379.09;2906044;82;21010;-57
2021/09/13 11:00:17;;;;;;;5.45;3.72;;;;;;;25.30;61.47;100385.39;2906514;80;21003;-58
2021/09/13 11:04:21;;;;;;;8.05;4.83;;;;;;;25.23;58.73;100380.84;2905603;82;21031;-59
2021/09/13 11:09:08;;;;;;;9.88;5.12;;;;;;;25.22;60.75;100387.86;2906265;80;20948;-58
2021/09/13 11:13:09;;;;;;;13.70;4.83;;;;;;;25.22;61.52;100384.62;2868261;83;20961;-57
2021/09/13 11:17:12;;;;;;;4.83;4.30;;;;;;;25.26;61.15;100391.83;2868413;80;21084;-61
2021/09/13 11:21:44;;;;;;;6.90;3.55;;;;;;;25.31;61.36;100387.06;2811066;84;21003;-57
2021/09/13 11:25:56;;;;;;;6.45;4.72;;;;;;;25.32;60.93;100390.08;2810329;84;21003;-63
2021/09/13 11:29:59;;;;;;;8.70;5.10;;;;;;;25.46;60.76;100388.93;2810487;84;21073;-57
2021/09/13 11:34:06;;;;;;;5.42;4.92;;;;;;;25.53;59.24;100396.53;2810330;84;21337;-59
2021/09/13 11:38:18;;;;;;;5.37;4.28;;;;;;;25.53;59.43;100394.36;2809203;84;21059;-59
2021/09/13 11:42:29;;;;;;;5.30;4.28;;;;;;;25.50;59.18;100395.63;2810978;81;21054;-57
2021/09/13 11:46:34;;;;;;;14.65;5.22;;;;;;;25.42;58.92;100405.92;2835707;81;20991;-57
2021/09/13 11:50:36;;;;;;;6.42;5.08;;;;;;;25.29;59.94;100399.55;2906542;80;21003;-57
2021/09/13 11:54:44;;;;;;;4.50;4.10;;;;;;;25.17;60.07;100396.70;2906025;82;20947;-62
2021/09/13 11:58:53;;;;;;;4.58;4.17;;;;;;;25.08;60.06;100398.01;2906269;82;20971;-61
2021/09/13 12:03:01;;;;;;;7.30;4.85;;;;;;;25.03;59.75;100396.48;2905924;82;20988;-60
2021/09/13 12:07:12;;;;;;;6.33;4.25;;;;;;;24.89;59.93;100406.08;2905940;81;21384;-59
2021/09/13 12:11:23;;;;;;;6.95;5.55;;;;;;;24.85;60.69;100402.64;2906126;82;20979;-57
2021/09/13 12:15:29;;;;;;;5.80;4.97;;;;;;;24.86;61.16;100397.50;2868341;83;20965;-58
2021/09/13 12:19:31;;;;;;;6.95;5.42;;;;;;;24.82;61.40;100403.93;2868381;82;20994;-56
2021/09/13 12:23:38;;;;;;;11.10;5.80;;;;;;;24.72;61.23;100396.72;2810391;84;21010;-56
2021/09/13 12:27:45;;;;;;;9.35;6.83;;;;;;;24.72;60.98;100396.20;2809899;81;20972;-57
2021/09/13 12:32:42;;;;;;;7.33;5.35;;;;;;;24.77;61.96;100395.59;2803661;84;20937;-59
2021/09/13 12:36:44;;;;;;;10.72;7.35;;;;;;;24.79;61.51;100392.13;2836011;84;21062;-63
2021/09/13 12:41:01;;;;;;;7.62;4.50;;;;;;;24.75;61.73;100392.20;2906206;82;21007;-61
2021/09/13 12:45:05;;;;;;;6.70;5.22;;;;;;;24.90;62.19;100390.59;2868481;83;21203;-57
2021/09/13 12:49:15;;;;;;;4.80;4.40;;;;;;;24.90;61.86;100386.52;2868376;80;20997;-60
2021/09/13 12:53:27;;;;;;;12.33;6.03;;;;;;;24.95;61.77;100382.06;2810328;84;20999;-60
2021/09/13 12:57:36;;;;;;;6.20;5.40;;;;;;;25.09;61.85;100384.70;2808130;84;20987;-57
2021/09/13 13:01:40;;;;;;;7.05;5.75;;;;;;;25.28;61.13;100389.72;2812388;84;21058;-57
2021/09/13 13:05:48;;;;;;;7.05;5.67;;;;;;;25.54;60.00;100387.85;2812246;84;21031;-57
2021/09/13 13:10:23;;;;;;;5.92;5.10;;;;;;;25.75;59.93;100384.41;2811233;84;21548;-58
2021/09/13 13:14:27;;;;;;;6.65;5.50;;;;;;;26.01;59.16;100375.13;2811995;84;21047;-57
2021/09/13 13:18:30;;;;;;;8.28;7.53;;;;;;;26.29;58.80;100377.06;2812369;84;21019;-56
2021/09/13 13:22:32;;;;;;;8.78;5.35;;;;;;;26.28;58.02;100366.67;2811881;84;21058;-56
2021/09/13 13:26:37;;;;;;;5.28;4.75;;;;;;;26.14;57.54;100367.84;2812204;84;21066;-57
2021/09/13 13:30:40;;;;;;;11.45;6.60;;;;;;;25.95;58.35;100369.23;2812087;81;21034;-59
2021/09/13 13:34:42;;;;;;;8.68;5.65;;;;;;;25.67;58.93;100367.83;2812124;84;20955;-56
2021/09/13 13:38:45;;;;;;;10.75;6.03;;;;;;;25.47;58.88;100359.83;2811757;84;21031;-63
2021/09/13 13:42:47;;;;;;;9.68;7.42;;;;;;;25.35;59.13;100351.53;2811919;81;21054;-56
2021/09/13 13:46:59;;;;;;;7.08;5.87;;;;;;;25.30;59.47;100346.77;2811985;84;20980;-57
2021/09/13 13:51:02;;;;;;;7.72;5.75;;;;;;;25.31;60.57;100342.99;2811840;81;20987;-59
2021/09/13 13:55:26;;;;;;;7.03;6.03;;;;;;;25.31;61.05;100347.08;2812223;84;21047;-57
2021/09/13 13:59:31;;;;;;;6.55;5.83;;;;;;;25.29;60.50;100337.45;2811518;81;21035;-57
2021/09/13 14:04:10;;;;;;;8.45;6.80;;;;;;;25.29;60.50;100337.45;2811991;84;21050;-57
2021/09/13 14:08:12;;;;;;;7.75;6.95;;;;;;;25.34;60.09;100340.33;2811901;81;21054;-56
2021/09/13 14:12:16;;;;;;;7.33;6.03;;;;;;;25.37;59.71;100336.64;2811888;81;20987;-58
2021/09/13 14:16:17;;;;;;;6.80;6.10;;;;;;;25.36;58.97;100334.98;2811620;81;21272;-60
2021/09/13 14:20:20;;;;;;;9.38;7.60;;;;;;;25.30;59.68;100340.48;2820301;82;21030;-60
2021/09/13 14:24:22;;;;;;;6.80;5.53;;;;;;;25.38;59.74;100330.69;2907565;82;21054;-58
2021/09/13 14:28:25;;;;;;;8.58;6.42;;;;;;;25.43;59.21;100332.20;2907394;80;21062;-56
2021/09/13 14:32:53;;;;;;;12.58;7.42;;;;;;;25.54;59.67;100333.39;2907791;82;20991;-57
2021/09/13 14:36:55;;;;;;;15.53;7.85;;;;;;;25.76;59.98;100332.45;2907618;82;20963;-57
2021/09/13 14:41:24;;;;;;;8.13;6.95;;;;;;;25.78;58.80;100335.77;2907805;82;21008;-60
2021/09/13 14:45:26;;;;;;;9.10;7.35;;;;;;;25.63;59.30;100339.38;2907456;82;21015;-57
2021/09/13 14:49:28;;;;;;;11.43;7.75;;;;;;;25.60;58.81;100335.75;2907696;82;21030;-59
2021/09/13 14:53:30;;;;;;;8.88;7.40;;;;;;;25.45;58.55;100327.88;2907440;80;20948;-57
2021/09/13 14:57:33;;;;;;;7.20;6.47;;;;;;;25.31;59.41;100336.70;2907872;82;21043;-56
2021/09/13 15:01:34;;;;;;;8.75;7.65;;;;;;;25.28;59.76;100337.15;2907827;82;20975;-57
2021/09/13 15:05:41;;;;;;;8.08;6.35;;;;;;;25.26;59.36;100336.54;2907217;80;29254;-57
2021/09/13 15:09:42;;;;;;;;;;;;;;;25.19;59.99;100325.19;2909926;82;21027;-56
2021/09/13 15:13:44;;;;;;;9.43;8.43;;;;;;;25.10;60.31;100327.35;2907842;81;20102;-57
2021/09/13 15:17:46;;;;;;;8.98;7.50;;;;;;;25.03;60.38;100329.81;2907751;82;20943;-58
2021/09/13 15:21:49;;;;;;;9.88;7.97;;;;;;;25.03;60.80;100336.08;2907753;82;21011;-57
2021/09/13 15:25:50;;;;;;;8.90;8.08;;;;;;;24.97;60.47;100327.98;2907667;82;20976;-58
2021/09/13 15:29:58;;;;;;;7.97;7.20;;;;;;;24.92;60.62;100332.18;2907798;82;21062;-57
2021/09/13 15:33:59;;;;;;;9.73;7.12;;;;;;;24.88;60.11;100326.88;2907636;82;20987;-60
2021/09/13 15:38:03;;;;;;;7.87;6.62;;;;;;;24.75;60.20;100322.37;2907713;82;21007;-57
2021/09/13 15:42:06;;;;;;;7.00;6.08;;;;;;;24.64;61.02;100330.67;2907385;80;20988;-58
2021/09/13 15:46:08;;;;;;;7.50;6.72;;;;;;;24.55;60.70;100327.88;2907622;82;20999;-59
2021/09/13 15:50:28;;;;;;;7.78;5.53;;;;;;;24.44;60.82;100331.30;2907891;82;20999;-56
2021/09/13 15:54:30;;;;;;;10.53;7.10;;;;;;;24.36;61.53;100336.46;2881076;82;21017;-57
2021/09/13 15:58:33;;;;;;;13.45;6.85;;;;;;;24.23;61.42;100330.56;2857983;83;21036;-56
2021/09/13 16:02:48;;;;;;;9.65;6.33;;;;;;;24.06;61.77;100333.75;2878178;82;21000;-58
2021/09/13 16:06:50;;;;;;;7.05;6.35;;;;;;;23.90;61.94;100330.11;2907936;82;20991;-56
2021/09/13 16:11:11;;;;;;;8.10;6.30;;;;;;;23.76;62.92;100338.83;2907694;81;20952;-56
2021/09/13 16:15:15;;;;;;;7.30;5.58;;;;;;;23.65;62.92;100341.66;2907561;82;21061;-56
2021/09/13 16:19:17;;;;;;;5.42;4.92;;;;;;;23.51;62.95;100340.31;2907720;81;21015;-56
2021/09/13 16:23:23;;;;;;;6.40;5.40;;;;;;;23.33;63.29;100342.32;2907385;82;21034;-60
2021/09/13 16:27:26;;;;;;;7.50;5.67;;;;;;;23.16;63.86;100343.20;2907393;79;21067;-58
2021/09/13 16:31:30;;;;;;;7.20;6.17;;;;;;;23.02;64.45;100342.91;2908021;82;21058;-57
2021/09/13 16:35:32;;;;;;;7.80;6.22;;;;;;;22.88;64.73;100348.30;2908149;82;20971;-57
2021/09/13 16:39:35;;;;;;;8.33;6.22;;;;;;;22.74;64.82;100349.30;2908031;82;20971;-56
2021/09/13 16:43:38;;;;;;;6.65;5.80;;;;;;;22.62;65.28;100354.48;2907707;82;20983;-58
2021/09/13 16:48:25;;;;;;;6.28;5.67;;;;;;;22.46;65.55;100358.38;2908022;82;21003;-59
2021/09/13 16:52:30;;;;;;;8.08;6.62;;;;;;;22.31;65.81;100359.35;2907504;79;20988;-57
2021/09/13 16:56:33;;;;;;;5.95;5.45;;;;;;;22.15;66.41;100361.04;2907821;82;21090;-57
2021/09/13 17:00:34;;;;;;;9.00;6.60;;;;;;;22.01;66.82;100365.05;2907068;79;21015;-58
2021/09/13 17:04:37;;;;;;;7.40;5.30;;;;;;;21.89;67.02;100362.04;2907816;79;21066;-58
2021/09/13 17:08:39;;;;;;;9.35;6.03;;;;;;;21.79;67.39;100358.34;2907416;79;20963;-56
2021/09/13 17:12:41;;;;;;;10.55;7.92;;;;;;;21.69;67.87;100367.34;2907622;79;21011;-56
2021/09/13 17:16:44;;;;;;;11.15;7.08;;;;;;;21.58;68.28;100361.92;2907090;82;21027;-58
2021/09/13 17:20:46;;;;;;;8.78;7.58;;;;;;;21.59;68.62;100368.16;2907772;79;21245;-58
2021/09/13 17:24:48;;;;;;;7.33;5.90;;;;;;;21.62;68.95;100377.27;2907476;79;20935;-57
2021/09/13 17:28:50;;;;;;;9.08;6.67;;;;;;;21.63;69.26;100374.88;2907762;82;21003;-57
2021/09/13 17:32:52;;;;;;;6.67;5.87;;;;;;;21.66;69.21;100374.50;2907823;81;20983;-57
2021/09/13 17:36:54;;;;;;;8.45;6.12;;;;;;;21.68;69.56;100382.73;2907287;79;21252;-59
2021/09/13 17:40:59;;;;;;;7.03;5.90;;;;;;;21.72;69.44;100380.48;2907930;82;21095;-56
2021/09/13 17:45:04;;;;;;;7.83;5.92;;;;;;;21.72;69.60;100385.89;2907763;82;21015;-59
2021/09/13 17:49:06;;;;;;;8.33;6.33;;;;;;;21.69;69.66;100380.88;2907751;79;20995;-59
2021/09/13 17:53:08;;;;;;;6.50;5.83;;;;;;;21.69;69.45;100389.00;2907685;82;21003;-56
2021/09/13 17:57:10;;;;;;;7.03;6.33;;;;;;;21.57;69.63;100388.67;2907510;79;21018;-57
2021/09/13 18:01:25;;;;;;;6.97;6.05;;;;;;;21.52;69.75;100398.72;2907531;82;21019;-56
2021/09/13 18:05:27;;;;;;;;;;;;;;;21.50;69.84;100401.29;2909723;81;21012;-58
2021/09/13 18:10:09;;;;;;;9.93;7.85;;;;;;;21.43;69.69;100394.49;2906808;81;20083;-59
2021/09/13 18:14:12;;;;;;;11.25;9.50;;;;;;;21.37;69.54;100402.02;2856657;83;21041;-57
2021/09/13 18:18:13;;;;;;;13.95;9.23;;;;;;;21.33;69.62;100410.20;2856469;82;21001;-58
2021/09/13 18:22:16;;;;;;;13.83;8.28;;;;;;;21.35;69.54;100418.46;2856515;82;21102;-58
2021/09/13 18:26:28;;;;;;;10.88;7.15;;;;;;;21.34;69.56;100418.14;2855970;82;21326;-60
2021/09/13 18:30:31;;;;;;;9.75;7.55;;;;;;;21.33;69.62;100422.38;2856611;82;21042;-58
2021/09/13 18:34:33;;;;;;;9.50;7.08;;;;;;;21.30;69.85;100424.13;2856535;82;20972;-57
2021/09/13 18:38:54;;;;;;;7.33;6.50;;;;;;;21.28;70.06;100424.84;2856393;82;21325;-57
2021/09/13 18:42:56;;;;;;;11.93;8.18;;;;;;;21.24;70.08;100429.28;2863346;82;21062;-60
2021/09/13 18:47:09;;;;;;;8.83;7.35;;;;;;;21.21;70.23;100422.06;2907708;82;21011;-62
2021/09/13 18:51:11;;;;;;;14.10;7.92;;;;;;;21.19;70.38;100420.89;2907352;82;21031;-60
2021/09/13 18:55:14;;;;;;;167.50;30.95;;;;;;;21.17;70.79;100428.36;2907780;82;21324;-57
2021/09/13 18:59:49;;;;;;;111.68;29.85;;;;;;;21.13;71.62;100427.08;2830587;83;21012;-56
2021/09/13 19:03:52;;;;;;;;;;;;;;;21.07;71.54;100430.56;2910134;80;20960;-57
2021/09/13 19:08:12;;;;;;;82.47;18.80;;;;;;;21.02;73.05;100436.53;2907600;82;20114;-56
2021/09/13 19:12:17;;;;;;;138.92;25.88;;;;;;;21.00;73.16;100430.98;2907294;82;21078;-56
2021/09/13 19:16:23;;;;;;;139.28;28.85;;;;;;;21.01;73.44;100432.66;2830803;84;21436;-62
2021/09/13 19:20:25;;;;;;;119.25;25.15;;;;;;;21.01;73.64;100433.51;2830687;82;21005;-57
2021/09/13 19:24:27;;;;;;;35.78;12.93;;;;;;;20.97;73.94;100438.98;2907607;82;21046;-56
2021/09/13 19:28:29;;;;;;;33.10;10.32;;;;;;;20.89;74.26;100440.43;2830328;83;20973;-57
2021/09/13 19:32:32;;;;;;;63.65;18.27;;;;;;;20.80;74.59;100438.34;2907295;79;20975;-56
2021/09/13 19:37:11;;;;;;;36.90;12.30;;;;;;;20.69;74.71;100447.25;2907270;79;21018;-58
2021/09/13 19:41:13;;;;;;;31.65;14.30;;;;;;;20.47;75.28;100448.22;2907755;80;20979;-57
2021/09/13 19:45:15;;;;;;;33.83;17.35;;;;;;;20.26;75.90;100454.67;2907259;82;21010;-57
2021/09/13 19:49:18;;;;;;;34.80;17.00;;;;;;;20.29;75.76;100458.88;2907478;79;21078;-59
2021/09/13 19:53:33;;;;;;;34.63;20.70;;;;;;;20.30;75.35;100457.86;2907510;82;20948;-58
2021/09/13 19:57:38;;;;;;;28.93;17.53;;;;;;;20.29;75.45;100454.83;2907558;82;21016;-56
2021/09/13 20:01:40;;;;;;;26.33;14.90;;;;;;;20.21;75.44;100459.80;2907911;79;21242;-61
2021/09/13 20:05:42;;;;;;;18.15;12.25;;;;;;;20.10;75.46;100461.09;2831156;82;21001;-57
2021/09/13 20:09:44;;;;;;;17.07;13.20;;;;;;;20.04;75.64;100465.86;2908392;79;20995;-59
2021/09/13 20:14:03;;;;;;;15.98;11.50;;;;;;;19.99;75.64;100462.89;2907924;79;20973;-57
2021/09/13 20:18:05;;;;;;;16.10;11.35;;;;;;;19.93;75.96;100463.63;2908088;79;21007;-57
2021/09/13 20:22:20;;;;;;;14.73;11.35;;;;;;;19.81;76.04;100463.20;2830784;81;21009;-58
2021/09/13 20:26:22;;;;;;;12.75;10.40;;;;;;;19.74;76.44;100468.98;2907947;82;21007;-62
2021/09/13 20:30:25;;;;;;;13.78;11.25;;;;;;;19.65;76.59;100469.56;2907981;82;20940;-57
2021/09/13 20:34:27;;;;;;;14.35;11.28;;;;;;;19.60;76.83;100469.27;2907854;79;21051;-59
2021/09/13 20:38:30;;;;;;;13.30;9.25;;;;;;;19.53;76.79;100467.30;2907230;79;20975;-56
2021/09/13 20:42:33;;;;;;;12.65;9.63;;;;;;;19.46;77.03;100474.45;2907925;79;21497;-58
2021/09/13 20:46:35;;;;;;;10.50;8.48;;;;;;;19.37;77.27;100475.52;2908265;82;21030;-58
2021/09/13 20:50:37;;;;;;;13.70;10.25;;;;;;;19.31;77.44;100481.63;2908509;82;21046;-58
2021/09/13 20:55:22;;;;;;;13.13;11.28;;;;;;;19.25;77.95;100484.00;2908175;82;20963;-58
2021/09/13 20:59:24;;;;;;;16.07;12.00;;;;;;;19.20;78.24;100486.92;2908111;82;20999;-57
2021/09/13 21:03:26;;;;;;;15.18;10.65;;;;;;;19.10;78.51;100496.06;2908129;81;21014;-57
2021/09/13 21:07:28;;;;;;;44.03;12.70;;;;;;;19.01;78.67;100493.09;2908062;82;21011;-57
2021/09/13 21:11:31;;;;;;;16.80;10.50;;;;;;;18.91;79.22;100490.58;2908123;82;21030;-62
2021/09/13 21:15:34;;;;;;;13.10;10.38;;;;;;;18.73;79.48;100493.50;2907751;79;21046;-57
2021/09/13 21:19:36;;;;;;;12.05;9.35;;;;;;;18.60;79.82;100498.11;2908178;82;20975;-56
2021/09/13 21:23:38;;;;;;;28.92;14.15;;;;;;;18.57;80.52;100509.23;2908001;82;21038;-58
2021/09/13 21:27:40;;;;;;;21.52;12.20;;;;;;;18.54;79.99;100504.19;2908105;82;21030;-57
2021/09/13 21:31:42;;;;;;;38.13;13.05;;;;;;;18.44;80.26;100502.19;2908216;82;21054;-58
2021/09/13 21:35:44;;;;;;;26.62;15.05;;;;;;;18.36;80.95;100499.86;2907594;82;20967;-57
2021/09/13 21:39:46;;;;;;;16.07;10.88;;;;;;;18.31;81.80;100505.42;2907515;82;21042;-57
2021/09/13 21:43:48;;;;;;;14.60;9.30;;;;;;;18.31;81.94;100497.34;2908086;82;20987;-56
2021/09/13 21:47:57;;;;;;;17.40;11.57;;;;;;;18.30;82.44;100495.17;2907789;82;21076;-56
2021/09/13 21:52:00;;;;;;;16.32;11.70;;;;;;;18.35;82.61;100495.98;2907910;82;21003;-62
2021/09/13 21:56:01;;;;;;;14.20;10.80;;;;;;;18.39;82.33;100496.82;2830633;82;21005;-57